Last 7 Days

Abernathy 1

Hourly Data | America/Los_Angeles
as of 11/27/20 12:52 PM PST
Date & Time Temp (°F) RH (%) Dew Pt (°F) Wind Spd (mph) Wind Dir (°) Wind Gust (mph) Latest Rain (In) Daily Rain (In) Daily Min Temp (°F) Daily Max Temp (°F)
11/27/20 - 1200 59.3 31 28.9 2.9 NE | 56 8.4 0.00 0.00 32.0 61.0
11/27/20 - 1100 56.5 33 28.1 3.6 ENE | 62 8.0 0.00 0.00 32.0 57.9
11/27/20 - 1000 52.8 43 31.0 2.1 S | 180 5.8 0.00 0.00 32.0 55.2
11/27/20 - 0900 45.1 59 31.6 0.8 N | 9 2.6 0.00 0.00 32.0 54.1
11/27/20 - 0800 35.4 77 28.9 0.6 NW | 316 1.9 0.00 0.00 32.0 54.1
11/27/20 - 0700 32.6 78 26.6 0.6 NNW | 333 2.3 0.00 0.00 32.0 54.1
11/27/20 - 0600 34.7 75 27.5 0.6 NNW | 344 2.3 0.00 0.00 33.8 54.1
11/27/20 - 0500 37.4 69 28.1 0.8 WNW | 292 2.7 0.00 0.00 35.9 54.1
11/27/20 - 0400 43.3 58 29.5 1.5 SSW | 192 5.2 0.00 0.00 40.2 54.1
11/27/20 - 0300 48.4 48 29.4 2.4 SSW | 192 6.5 0.00 0.00 45.6 54.1
11/27/20 - 0200 49.2 35 22.2 2.2 S | 187 5.2 0.00 0.00 46.6 54.1
11/27/20 - 0100 52.2 30 21.3 2.6 NNW | 337 9.2 0.00 0.00 49.8 54.1
11/27/20 - 0000 51.0 31 21.6 2.3 NNW | 348 6.5 0.00 0.00 42.7 65.2
11/26/20 - 2300 52.9 29 21.6 1.6 E | 95 5.3 0.00 0.00 42.7 65.2
11/26/20 - 2200 58.2 24 21.1 3.0 N | 358 11.5 0.00 0.00 42.7 65.2
11/26/20 - 2100 60.7 20 20.0 8.0 N | 9 20.5 0.00 0.00 42.7 65.2
11/26/20 - 2000 58.3 23 20.9 6.4 N | 2 17.1 0.00 0.00 42.7 65.2
11/26/20 - 1900 58.2 23 21.1 5.6 NNE | 14 12.3 0.00 0.00 42.7 65.2
11/26/20 - 1800 59.2 22 20.3 5.5 NNE | 12 13.3 0.00 0.00 42.7 65.2
11/26/20 - 1700 61.8 19 19.5 6.3 N | 11 13.1 0.00 0.00 42.7 65.2
11/26/20 - 1600 64.2 17 19.0 10.5 N | 9 21.4 0.00 0.00 42.7 65.2
11/26/20 - 1500 64.6 19 21.4 11.5 NNE | 17 22.2 0.00 0.00 42.7 65.2
11/26/20 - 1400 64.5 20 22.7 11.8 NNE | 21 21.7 0.00 0.00 42.7 65.1
11/26/20 - 1300 64.0 21 23.6 10.9 NNE | 28 21.9 0.00 0.00 42.7 65.1
11/26/20 - 1200 63.6 23 24.6 10.4 N | 11 19.4 0.00 0.00 42.7 64.8
11/26/20 - 1100 62.0 24 24.8 10.3 NNE | 14 21.1 0.00 0.00 42.7 63.0
11/26/20 - 1000 58.6 29 26.4 10.9 N | 4 21.1 0.00 0.00 42.7 60.6
11/26/20 - 0900 55.0 34 27.2 9.9 N | 352 17.5 0.00 0.00 42.7 56.8
11/26/20 - 0800 51.8 38 27.2 7.6 N | 350 16.4 0.00 0.00 42.7 54.1
11/26/20 - 0700 50.6 40 27.2 6.2 NNW | 343 10.6 0.00 0.00 42.7 54.1
11/26/20 - 0600 51.7 38 27.0 7.3 NNW | 345 14.4 0.00 0.00 42.7 54.1
11/26/20 - 0500 52.8 36 26.9 9.3 NNW | 348 17.8 0.00 0.00 42.7 54.1
11/26/20 - 0400 53.5 36 27.4 10.6 N | 356 19.8 0.00 0.00 42.7 54.1
11/26/20 - 0300 53.4 38 28.6 9.6 N | 358 20.5 0.00 0.00 42.7 54.1
11/26/20 - 0200 51.8 46 31.8 6.0 NW | 326 14.0 0.00 0.00 42.7 52.5
11/26/20 - 0100 46.0 61 33.2 3.4 WNW | 290 11.6 0.00 0.00 42.7 51.2
11/26/20 - 0000 47.6 59 34.0 3.4 WNW | 297 8.2 0.00 0.00 42.7 65.0
11/25/20 - 2300 48.7 57 34.3 4.6 NNW | 333 9.3 0.00 0.00 42.7 65.0
11/25/20 - 2200 44.8 68 35.0 3.1 WNW | 283 6.6 0.00 0.00 42.7 65.0
11/25/20 - 2100 45.2 73 37.0 2.9 WNW | 292 5.5 0.00 0.00 43.9 65.0
11/25/20 - 2000 45.7 75 38.1 2.9 NW | 308 6.4 0.00 0.00 44.3 65.0
11/25/20 - 1900 49.2 70 39.8 1.5 NW | 309 3.2 0.00 0.00 45.7 65.0
11/25/20 - 1800 55.1 59 41.0 2.3 S | 187 4.6 0.00 0.00 45.7 65.0
11/25/20 - 1700 59.3 49 40.1 3.2 S | 191 11.2 0.00 0.00 45.7 65.0
11/25/20 - 1600 61.8 45 40.0 3.6 SE | 139 7.2 0.00 0.00 45.7 65.0
11/25/20 - 1500 63.4 43 40.5 4.0 SSE | 160 9.0 0.00 0.00 45.7 65.0
11/25/20 - 1400 64.0 44 41.4 3.9 S | 173 9.2 0.00 0.00 45.7 65.0
11/25/20 - 1300 62.9 47 42.2 3.7 S | 171 8.4 0.00 0.00 45.7 64.2
11/25/20 - 1200 62.1 49 43.0 4.0 S | 186 9.2 0.00 0.00 45.7 63.4
11/25/20 - 1100 60.4 55 44.1 5.1 WSW | 248 9.8 0.00 0.00 45.7 61.5
11/25/20 - 1000 58.0 62 45.0 3.9 W | 268 7.2 0.00 0.00 45.7 59.9
11/25/20 - 0900 52.5 77 45.5 2.6 W | 272 5.7 0.00 0.00 45.7 55.7
11/25/20 - 0800 47.2 84 42.8 2.1 WNW | 283 5.6 0.00 0.00 45.7 50.2
11/25/20 - 0700 48.1 83 43.2 3.2 WSW | 257 7.4 0.00 0.00 45.8 50.2
11/25/20 - 0600 48.8 82 43.4 6.2 WSW | 248 12.0 0.00 0.00 45.8 50.2
11/25/20 - 0500 48.9 81 43.4 4.8 WSW | 254 11.0 0.00 0.00 45.8 50.2
11/25/20 - 0400 49.0 82 43.7 4.0 WSW | 248 9.4 0.00 0.00 45.8 49.5
11/25/20 - 0300 46.7 89 43.7 3.9 SSW | 204 9.7 0.00 0.00 45.8 48.6
11/25/20 - 0200 46.4 90 43.7 5.8 SW | 233 11.1 0.00 0.00 46.0 48.6
11/25/20 - 0100 47.9 90 45.0 7.6 WSW | 243 14.5 0.00 0.00 47.0 48.6
11/25/20 - 0000 49.4 87 45.7 5.5 WSW | 248 12.5 0.00 0.00 34.0 69.7
11/24/20 - 2300 49.2 87 45.5 4.7 SW | 235 13.8 0.00 0.00 34.0 69.7
11/24/20 - 2200 50.2 86 46.2 4.1 WSW | 239 12.2 0.00 0.00 34.0 69.7
11/24/20 - 2100 51.2 83 46.2 6.8 WSW | 249 11.3 0.00 0.00 34.0 69.7
11/24/20 - 2000 52.9 75 45.3 6.0 WSW | 240 13.3 0.00 0.00 34.0 69.7
11/24/20 - 1900 54.8 63 42.4 3.2 W | 277 7.8 0.00 0.00 34.0 69.7
11/24/20 - 1800 57.3 58 42.5 2.0 WNW | 294 5.7 0.00 0.00 34.0 69.7
11/24/20 - 1700 62.1 49 42.6 3.6 WSW | 254 7.2 0.00 0.00 34.0 69.7
11/24/20 - 1600 66.7 41 42.2 5.4 WSW | 254 9.8 0.00 0.00 34.0 69.7
11/24/20 - 1500 68.1 38 41.6 7.2 WSW | 253 13.1 0.00 0.00 34.0 69.7
11/24/20 - 1400 69.2 35 40.0 7.4 WSW | 246 13.0 0.00 0.00 34.0 69.7
11/24/20 - 1300 67.6 38 41.3 3.6 SSE | 151 9.1 0.00 0.00 34.0 69.6
11/24/20 - 1200 65.3 45 43.3 2.5 SSW | 196 5.9 0.00 0.00 34.0 67.1
11/24/20 - 1100 61.2 55 45.1 2.0 S | 178 5.1 0.00 0.00 34.0 63.8
11/24/20 - 1000 55.2 69 45.2 1.5 NW | 325 4.3 0.00 0.00 34.0 58.9
11/24/20 - 0900 46.5 88 43.0 0.7 NNW | 347 3.0 0.00 0.00 34.0 51.7
11/24/20 - 0800 37.5 94 35.9 0.7 NNE | 15 3.3 0.00 0.00 34.0 46.6
11/24/20 - 0700 34.8 92 32.9 0.8 NNW | 332 3.2 0.00 0.00 34.0 46.6
11/24/20 - 0600 36.6 92 34.6 1.2 NNE | 20 2.8 0.00 0.00 35.7 46.6
11/24/20 - 0500 37.3 92 35.1 0.9 NE | 52 2.1 0.00 0.00 36.9 46.6
11/24/20 - 0400 38.1 91 35.6 0.8 NNE | 24 3.0 0.00 0.00 37.2 46.6
11/24/20 - 0300 39.8 89 36.9 0.8 N | 356 3.2 0.00 0.00 38.1 46.6
11/24/20 - 0200 42.0 87 38.5 1.7 W | 265 3.9 0.00 0.00 41.1 46.6
11/24/20 - 0100 45.4 83 40.5 2.0 WSW | 246 4.2 0.00 0.00 43.1 46.6
11/24/20 - 0000 45.4 85 41.3 2.8 W | 266 4.9 0.00 0.00 37.0 66.6
11/23/20 - 2300 44.6 87 41.0 3.0 W | 268 5.4 0.00 0.00 37.0 66.6
11/23/20 - 2200 45.4 85 41.1 1.8 WNW | 294 4.0 0.00 0.00 37.0 66.6
11/23/20 - 2100 46.6 84 42.0 2.4 W | 279 4.4 0.00 0.00 37.0 66.6
11/23/20 - 2000 49.4 78 42.9 1.7 NW | 310 3.3 0.00 0.00 37.0 66.6
11/23/20 - 1900 53.8 72 44.8 3.7 WSW | 258 7.3 0.00 0.00 37.0 66.6
11/23/20 - 1800 56.6 66 45.3 5.0 WSW | 258 9.5 0.00 0.00 37.0 66.6
11/23/20 - 1700 60.0 61 46.5 5.4 WSW | 254 12.5 0.00 0.00 37.0 66.6
11/23/20 - 1600 64.2 51 45.5 6.9 WSW | 256 11.8 0.00 0.00 37.0 66.6
11/23/20 - 1500 65.9 46 44.7 6.8 WSW | 250 12.3 0.00 0.00 37.0 66.6
11/23/20 - 1400 65.6 44 43.2 5.4 WSW | 247 12.4 0.00 0.00 37.0 66.6
11/23/20 - 1300 64.6 45 43.0 4.4 SW | 235 9.7 0.00 0.00 37.0 65.5
11/23/20 - 1200 62.1 49 43.0 2.6 WNW | 285 7.5 0.00 0.00 37.0 63.7
11/23/20 - 1100 59.5 58 44.6 2.0 SW | 230 5.4 0.00 0.00 37.0 61.3
11/23/20 - 1000 53.9 73 45.5 1.5 W | 281 4.6 0.00 0.00 37.0 57.9
11/23/20 - 0900 46.9 88 43.7 1.2 NW | 305 2.6 0.00 0.00 37.0 51.5
11/23/20 - 0800 40.0 93 38.2 0.7 WNW | 288 2.8 0.00 0.00 37.0 51.5
11/23/20 - 0700 38.2 91 36.0 0.6 NW | 307 2.5 0.00 0.00 37.0 51.5
11/23/20 - 0600 40.2 91 37.8 1.1 WNW | 299 3.9 0.00 0.00 39.6 51.5
11/23/20 - 0500 43.4 89 40.3 1.4 WNW | 294 3.8 0.00 0.00 40.0 51.5
11/23/20 - 0400 47.8 88 44.3 4.4 WSW | 242 9.5 0.00 0.00 47.1 51.5
11/23/20 - 0300 48.8 80 43.0 4.0 WSW | 248 9.8 0.00 0.00 47.8 51.5
11/23/20 - 0200 50.3 74 42.4 6.6 WSW | 244 13.5 0.00 0.00 49.4 51.5
11/23/20 - 0100 51.1 72 42.6 6.1 WSW | 249 11.1 0.00 0.00 49.9 51.5
11/23/20 - 0000 50.9 77 43.9 5.9 SW | 231 10.9 0.00 0.00 32.4 65.2
11/22/20 - 2300 51.3 77 44.4 5.5 SW | 236 10.6 0.00 0.00 32.4 65.2
11/22/20 - 2200 51.8 76 44.6 4.5 SW | 234 7.9 0.00 0.00 32.4 65.2
11/22/20 - 2100 52.2 75 44.5 5.6 WSW | 243 11.0 0.00 0.00 32.4 65.2
11/22/20 - 2000 52.4 75 44.6 5.0 SW | 236 9.1 0.00 0.00 32.4 65.2
11/22/20 - 1900 53.2 72 44.5 6.2 WSW | 244 11.5 0.00 0.00 32.4 65.2
11/22/20 - 1800 54.2 69 44.3 6.4 WSW | 255 12.0 0.00 0.00 32.4 65.2
11/22/20 - 1700 57.0 63 44.4 7.8 WSW | 254 14.7 0.00 0.00 32.4 65.2
11/22/20 - 1600 60.3 53 43.1 9.4 WSW | 256 18.1 0.00 0.00 32.4 65.2
11/22/20 - 1500 61.8 41 37.6 6.2 WSW | 245 11.0 0.00 0.00 32.4 65.2
11/22/20 - 1400 64.0 35 35.8 7.9 WSW | 245 13.0 0.00 0.00 32.4 65.2
11/22/20 - 1300 64.0 35 35.5 7.3 WSW | 246 12.2 0.00 0.00 32.4 64.8
11/22/20 - 1200 62.7 38 36.6 3.9 SW | 215 10.2 0.00 0.00 32.4 64.8
11/22/20 - 1100 58.4 43 36.0 2.0 SSW | 197 5.8 0.00 0.00 32.4 61.2
11/22/20 - 1000 51.8 57 37.0 1.3 WNW | 284 3.1 0.00 0.00 32.4 56.2
11/22/20 - 0900 44.4 76 37.2 0.8 N | 352 2.4 0.00 0.00 32.4 48.4
11/22/20 - 0800 35.1 89 32.3 0.9 NW | 306 2.8 0.00 0.00 32.4 40.8
11/22/20 - 0700 34.2 88 30.9 1.2 NW | 319 3.3 0.00 0.00 32.7 40.8
11/22/20 - 0600 34.8 90 32.0 1.6 NW | 318 3.9 0.00 0.00 32.8 40.8
11/22/20 - 0500 33.4 89 30.6 1.0 WNW | 302 2.5 0.00 0.00 32.8 40.8
11/22/20 - 0400 35.3 88 32.0 0.9 NNE | 27 2.5 0.00 0.00 34.3 40.8
11/22/20 - 0300 37.1 85 33.0 1.4 W | 271 3.5 0.00 0.00 35.8 40.8
11/22/20 - 0200 39.1 84 34.6 1.0 WNW | 296 3.2 0.00 0.00 38.6 40.8
11/22/20 - 0100 40.0 83 35.4 1.8 WNW | 284 3.6 0.00 0.00 39.3 40.8
11/22/20 - 0000 41.0 82 35.9 0.8 WNW | 291 2.2 0.00 0.00 29.9 65.6
11/21/20 - 2300 42.6 79 36.7 1.9 W | 276 3.7 0.00 0.00 29.9 65.6
11/21/20 - 2200 43.9 77 37.3 2.1 WNW | 290 3.7 0.00 0.00 29.9 65.6
11/21/20 - 2100 44.3 77 37.5 1.7 NW | 304 3.4 0.00 0.00 29.9 65.6
11/21/20 - 2000 45.0 76 38.1 0.9 NW | 316 2.6 0.00 0.00 29.9 65.6
11/21/20 - 1900 47.4 72 38.7 0.9 NW | 322 3.6 0.00 0.00 29.9 65.6
11/21/20 - 1800 53.4 57 38.2 1.0 W | 281 2.8 0.00 0.00 29.9 65.6
11/21/20 - 1700 60.1 40 35.4 2.4 SSE | 151 5.3 0.00 0.00 29.9 65.6
11/21/20 - 1600 64.2 31 33.2 2.7 SSE | 161 6.0 0.00 0.00 29.9 65.6
11/21/20 - 1500 63.6 33 34.0 3.2 SW | 219 6.6 0.00 0.00 29.9 65.2
11/21/20 - 1400 63.2 36 35.6 3.6 SW | 234 7.2 0.00 0.00 29.9 63.8
11/21/20 - 1300 62.6 36 35.6 2.8 SSW | 210 6.0 0.00 0.00 29.9 63.8
11/21/20 - 1200 59.5 44 37.4 3.0 SW | 217 6.4 0.00 0.00 29.9 62.0
11/21/20 - 1100 54.8 51 37.1 2.6 S | 187 5.3 0.00 0.00 29.9 57.7
11/21/20 - 1000 49.9 63 37.8 2.0 SW | 234 5.0 0.00 0.00 29.9 52.5
11/21/20 - 0900 41.4 88 37.9 0.5 NNW | 331 2.0 0.00 0.00 29.9 45.9
11/21/20 - 0800 33.2 93 31.3 0.4 N | 2 1.9 0.00 0.00 29.9 37.7
11/21/20 - 0700 30.5 92 28.4 0.2 W | 280 1.6 0.00 0.00 29.9 37.7
11/21/20 - 0600 30.5 91 28.2 0.9 NW | 320 2.7 0.00 0.00 30.0 37.7
11/21/20 - 0500 31.7 91 29.3 0.8 NNE | 29 2.5 0.00 0.00 31.2 37.7
11/21/20 - 0400 32.5 90 29.9 0.7 NNW | 332 2.1 0.00 0.00 31.8 37.7
11/21/20 - 0300 33.4 89 30.4 0.4 NNW | 338 2.2 0.00 0.00 32.8 37.7
11/21/20 - 0200 35.5 87 32.1 0.5 NW | 316 2.8 0.00 0.00 33.8 37.7
11/21/20 - 0100 36.7 86 32.8 0.8 WSW | 257 2.2 0.00 0.00 36.1 37.7
11/21/20 - 0000 38.5 84 34.2 1.2 NW | 304 2.8 0.00 0.00 33.0 69.6
11/20/20 - 2300 39.6 83 34.7 1.2 NW | 312 3.2 0.00 0.00 33.0 69.6
11/20/20 - 2200 41.9 80 36.2 1.2 NW | 325 3.7 0.00 0.00 33.0 69.6
11/20/20 - 2100 42.9 79 37.0 1.2 NW | 317 3.8 0.00 0.00 33.0 69.6
11/20/20 - 2000 44.5 78 38.0 0.7 NW | 316 2.7 0.00 0.00 33.0 69.6
11/20/20 - 1900 48.5 71 39.5 1.5 NW | 315 3.4 0.00 0.00 33.0 69.6
11/20/20 - 1800 54.9 57 39.9 1.2 W | 269 3.4 0.00 0.00 33.0 69.6
11/20/20 - 1700 61.4 44 39.6 3.6 WSW | 246 6.6 0.00 0.00 33.0 69.6
11/20/20 - 1600 66.9 29 33.3 3.5 WSW | 244 7.1 0.00 0.00 33.0 69.6
11/20/20 - 1500 68.5 26 31.8 1.5 W | 272 6.5 0.00 0.00 33.0 69.6
11/20/20 - 1400 67.4 27 31.9 1.9 NNE | 26 6.1 0.00 0.00 33.0 68.9
11/20/20 - 1300 65.2 31 33.8 2.1 N | 350 6.0 0.00 0.00 33.0 67.0
Max 69.2 94 46.5 11.8 - 22.2 0.00 0.00 49.9 69.7
Avg 51.1 62 36.3 3.6 - 7.9 0.00 - - -
Min 30.5 17 19.0 0.2 - 1.6 0.00 0.00 29.9 37.7
Total - - - - - - 0.00 - - -
Tip: Bookmark this page for easy future reference